This is the latest recevied weather packets stored in our database for station/object URMN. If no packets are shown the sender has not sent any weather packets the latest 10 day(s).
| Time | Temp. | Humidity | Pressure | Rain* | Wind** | Luminosity | Snow |
|---|---|---|---|---|---|---|---|
| 1777705253 | 5° C | 93% | 1016 hPa | - | - | - | - |
| 1777703453 | 5° C | 93% | 1016 hPa | - | - | - | - |
| 1777701652 | 5° C | 93% | 1015 hPa | - | - | - | - |
| 1777699851 | 5° C | 93% | 1015 hPa | - | - | - | - |
| 1777698052 | 5° C | 93% | 1015 hPa | - | - | - | - |
| 1777696251 | 5° C | 86% | 1015 hPa | - | - | - | - |
| 1777694454 | 5° C | 86% | 1015 hPa | - | - | - | - |
| 1777692652 | 5° C | 80% | 1014 hPa | - | - | - | - |
| 1777690851 | 3.89° C | 86% | 1014 hPa | - | - | - | - |
| 1777689052 | 3.89° C | 93% | 1014 hPa | - | - | - | - |
| 1777687255 | 5° C | 86% | 1013 hPa | - | - | - | - |
| 1777685452 | 5° C | 86% | 1013 hPa | - | - | - | - |
| 1777683652 | 5° C | 86% | 1013 hPa | - | - | - | - |
| 1777681852 | 5° C | 86% | 1013 hPa | - | - | - | - |
| 1777680051 | 5° C | 86% | 1012 hPa | - | - | - | - |
| 1777678254 | 5° C | 86% | 1012 hPa | - | - | - | - |
| 1777676452 | 5.56° C | 81% | 1012 hPa | - | - | - | - |
| 1777674654 | 5.56° C | 81% | 1012 hPa | - | - | - | - |
| 1777672852 | 5.56° C | 86% | 1012 hPa | - | - | - | - |
| 1777671052 | 5.56° C | 86% | 1012 hPa | - | - | - | - |
| 1777669252 | 5.56° C | 86% | 1013 hPa | - | - | - | - |
| 1777667452 | 6.67° C | 87% | 1012 hPa | - | - | - | - |
| 1777665652 | 7.78° C | 81% | 1013 hPa | - | - | - | - |
| 1777663855 | 7.78° C | 87% | 1013 hPa | - | - | - | - |
| 1777662052 | 10° C | 71% | 1013 hPa | - | - | - | - |
* Rain since midnight (hover to see other rain measurements)
** Current wind speed in m/s (hover to see current wind gust speed)